createdAt,value
2019-05-29T00:00:03.624Z,11.1
2019-05-29T00:01:02.516Z,11.1
2019-05-29T00:02:03.321Z,11.1
2019-05-29T00:03:02.622Z,11.1
2019-05-29T00:04:03.307Z,11.1
2019-05-29T00:05:02.515Z,11.1
2019-05-29T00:06:03.086Z,11.1
2019-05-29T00:07:02.459Z,11.1
2019-05-29T00:08:03.043Z,11.1
2019-05-29T00:09:03.278Z,11.1
2019-05-29T00:10:03.073Z,11
2019-05-29T00:11:03.004Z,11
2019-05-29T00:12:02.834Z,11
2019-05-29T00:13:03.230Z,11
2019-05-29T00:14:27.814Z,11.1
2019-05-29T00:15:03.474Z,11
2019-05-29T00:16:02.801Z,11
2019-05-29T00:17:03.414Z,11
2019-05-29T00:18:02.930Z,11
2019-05-29T00:19:03.256Z,11
2019-05-29T00:20:02.728Z,11
2019-05-29T00:21:02.683Z,11
2019-05-29T00:22:02.790Z,11
2019-05-29T00:23:03.103Z,11
2019-05-29T00:24:03.113Z,10.9
2019-05-29T00:25:02.965Z,10.9
2019-05-29T00:26:02.709Z,10.9
2019-05-29T00:27:03.417Z,10.9
2019-05-29T00:28:02.730Z,10.9
2019-05-29T00:29:02.863Z,10.9
2019-05-29T00:30:02.510Z,10.9
2019-05-29T00:31:03.510Z,10.9
2019-05-29T00:32:02.681Z,10.9
2019-05-29T00:33:02.607Z,10.9
2019-05-29T00:34:03.504Z,10.9
2019-05-29T00:35:03.123Z,10.9
2019-05-29T00:36:02.498Z,10.9
2019-05-29T00:37:02.984Z,10.9
2019-05-29T00:38:02.619Z,10.9
2019-05-29T00:39:03.227Z,10.9
2019-05-29T00:40:02.766Z,10.9
2019-05-29T00:41:02.703Z,10.9
2019-05-29T00:42:03.557Z,10.9
2019-05-29T00:43:02.633Z,10.9
2019-05-29T00:44:03.332Z,10.9
2019-05-29T00:45:03.094Z,10.9
2019-05-29T00:46:03.358Z,10.9
2019-05-29T00:47:02.720Z,10.9
2019-05-29T00:48:03.116Z,10.9
2019-05-29T00:49:02.691Z,10.9
2019-05-29T00:50:03.139Z,10.9
2019-05-29T00:51:02.808Z,10.9
2019-05-29T00:52:03.351Z,10.9
2019-05-29T00:53:02.476Z,10.9
2019-05-29T00:54:03.082Z,10.9
2019-05-29T00:55:03.579Z,10.9
2019-05-29T00:56:02.871Z,10.9
2019-05-29T00:57:02.694Z,10.9
2019-05-29T00:58:03.228Z,10.8
2019-05-29T00:59:02.521Z,10.9
2019-05-29T01:00:03.237Z,10.8
2019-05-29T01:01:03.380Z,10.9
2019-05-29T01:02:03.309Z,10.8
2019-05-29T01:03:02.893Z,10.8
2019-05-29T01:04:03.115Z,10.9
2019-05-29T01:05:02.794Z,10.9
2019-05-29T01:06:03.333Z,10.9
2019-05-29T01:07:03.453Z,10.8
2019-05-29T01:08:02.837Z,10.9
2019-05-29T01:09:03.972Z,10.8
2019-05-29T01:10:03.034Z,10.8
2019-05-29T01:11:03.584Z,10.8
2019-05-29T01:12:02.975Z,10.8
2019-05-29T01:13:02.524Z,10.8
2019-05-29T01:14:03.141Z,10.8
2019-05-29T01:15:03.604Z,10.7
2019-05-29T01:16:03.240Z,10.8
2019-05-29T01:17:03.555Z,10.8
2019-05-29T01:18:03.031Z,10.8
2019-05-29T01:19:03.165Z,10.7
2019-05-29T01:20:03.077Z,10.7
2019-05-29T01:21:03.203Z,10.7
2019-05-29T01:22:02.843Z,10.6
2019-05-29T01:23:02.765Z,10.7
2019-05-29T01:24:02.928Z,10.7
2019-05-29T01:25:03.384Z,10.7
2019-05-29T01:26:02.663Z,10.7
2019-05-29T01:27:03.356Z,10.7
2019-05-29T01:28:02.429Z,10.7
2019-05-29T01:29:03.446Z,10.7
2019-05-29T01:30:02.857Z,10.7
2019-05-29T01:31:03.053Z,10.7
2019-05-29T01:32:02.650Z,10.7
2019-05-29T01:33:02.963Z,10.8
2019-05-29T01:34:02.746Z,10.8
2019-05-29T01:35:03.268Z,10.8
2019-05-29T01:36:02.734Z,10.7
2019-05-29T01:37:02.955Z,10.8
2019-05-29T01:38:03.345Z,10.7
2019-05-29T01:39:02.617Z,10.8
2019-05-29T01:40:26.399Z,10.8
2019-05-29T01:41:02.645Z,10.8
2019-05-29T01:42:03.136Z,10.8
2019-05-29T01:43:03.175Z,10.8
2019-05-29T01:44:03.330Z,10.8
2019-05-29T01:45:08.938Z,10.8
2019-05-29T01:46:02.995Z,10.8
2019-05-29T01:47:02.892Z,10.8
2019-05-29T01:48:03.084Z,10.8
2019-05-29T01:49:02.792Z,10.8
2019-05-29T01:50:03.028Z,10.8
2019-05-29T01:51:02.632Z,10.8
2019-05-29T01:52:02.941Z,10.8
2019-05-29T01:53:03.431Z,10.8
2019-05-29T01:54:02.824Z,10.8
2019-05-29T01:55:03.354Z,10.8
2019-05-29T01:56:02.734Z,10.8
2019-05-29T01:57:03.095Z,10.8
2019-05-29T01:58:02.699Z,10.8
2019-05-29T01:59:03.217Z,10.8
2019-05-29T02:00:02.867Z,10.8
2019-05-29T02:01:03.431Z,10.8
2019-05-29T02:02:02.946Z,10.8
2019-05-29T02:03:03.368Z,10.8
2019-05-29T02:04:02.617Z,10.8
2019-05-29T02:05:03.386Z,10.8
2019-05-29T02:06:02.833Z,10.8
2019-05-29T02:07:03.697Z,10.8
2019-05-29T02:08:02.467Z,10.8
2019-05-29T02:09:02.941Z,10.8
2019-05-29T02:10:03.597Z,10.7
2019-05-29T02:11:03.176Z,10.8
2019-05-29T02:12:03.592Z,10.8
2019-05-29T02:13:02.644Z,10.8
2019-05-29T02:14:03.367Z,10.8
2019-05-29T02:15:02.952Z,10.8
2019-05-29T02:16:03.383Z,10.8
2019-05-29T02:17:02.820Z,10.8
2019-05-29T02:18:03.419Z,10.8
2019-05-29T02:19:03.109Z,10.8
2019-05-29T02:20:03.249Z,10.8
2019-05-29T02:21:02.839Z,10.8
2019-05-29T02:22:03.332Z,10.8
2019-05-29T02:23:02.583Z,10.8
2019-05-29T02:24:03.246Z,10.8
2019-05-29T02:25:02.742Z,10.8
2019-05-29T02:26:03.366Z,10.8
2019-05-29T02:27:02.718Z,10.8
2019-05-29T02:28:03.123Z,10.8
2019-05-29T02:29:02.618Z,10.8
2019-05-29T02:30:03.137Z,10.8
2019-05-29T02:31:02.820Z,10.8
2019-05-29T02:32:03.320Z,10.8
2019-05-29T02:33:02.942Z,10.8
2019-05-29T02:34:07.716Z,10.7
2019-05-29T02:35:02.869Z,10.7
2019-05-29T02:36:03.204Z,10.7
2019-05-29T02:37:02.960Z,10.6
2019-05-29T02:38:03.553Z,10.7
2019-05-29T02:39:03.106Z,10.7
2019-05-29T02:40:03.406Z,10.7
2019-05-29T02:41:02.398Z,10.7
2019-05-29T02:42:03.170Z,10.7
2019-05-29T02:43:02.723Z,10.8
2019-05-29T02:44:03.180Z,10.8
2019-05-29T02:45:02.783Z,10.7
2019-05-29T02:46:03.182Z,10.7
2019-05-29T02:47:02.866Z,10.7
2019-05-29T02:48:03.098Z,10.7
2019-05-29T02:49:02.604Z,10.7
2019-05-29T02:50:03.006Z,10.7
2019-05-29T02:51:02.623Z,10.8
2019-05-29T02:52:02.783Z,10.8
2019-05-29T02:53:03.306Z,10.8
2019-05-29T02:54:02.559Z,10.8
2019-05-29T02:55:03.413Z,10.7
2019-05-29T02:56:02.484Z,10.7
2019-05-29T02:57:03.058Z,10.7
2019-05-29T02:58:03.400Z,10.8
2019-05-29T02:59:02.975Z,10.8
2019-05-29T03:00:03.626Z,10.8
2019-05-29T03:01:02.818Z,10.7
2019-05-29T03:02:02.456Z,10.8
2019-05-29T03:03:03.021Z,10.8
2019-05-29T03:04:03.343Z,10.8
2019-05-29T03:05:02.922Z,10.8
2019-05-29T03:06:03.222Z,10.8
2019-05-29T03:07:02.958Z,10.8
2019-05-29T03:08:03.328Z,10.8
2019-05-29T03:09:02.921Z,10.8
2019-05-29T03:10:03.345Z,10.8
2019-05-29T03:11:03.482Z,10.8
2019-05-29T03:12:03.275Z,10.8
2019-05-29T03:13:03.161Z,10.8
2019-05-29T03:14:03.257Z,10.7
2019-05-29T03:15:02.750Z,10.8
2019-05-29T03:16:13.292Z,10.8
2019-05-29T03:17:03.056Z,10.8
2019-05-29T03:18:02.886Z,10.8
2019-05-29T03:19:03.296Z,10.8
2019-05-29T03:20:03.012Z,10.8
2019-05-29T03:21:03.306Z,10.8
2019-05-29T03:22:02.723Z,10.8
2019-05-29T03:23:03.191Z,10.8
2019-05-29T03:24:03.086Z,10.8
2019-05-29T03:25:02.954Z,10.8
2019-05-29T03:26:03.113Z,10.8
2019-05-29T03:27:02.873Z,10.8
2019-05-29T03:28:03.215Z,10.8
2019-05-29T03:29:02.759Z,10.8
2019-05-29T03:30:03.107Z,10.8
2019-05-29T03:31:03.011Z,10.8
2019-05-29T03:32:02.988Z,10.8
2019-05-29T03:33:02.821Z,10.8
2019-05-29T03:34:03.246Z,10.8
2019-05-29T03:35:02.737Z,10.8
2019-05-29T03:36:03.083Z,10.8
2019-05-29T03:37:02.447Z,10.8
2019-05-29T03:38:02.902Z,10.8
2019-05-29T03:39:02.692Z,10.8
2019-05-29T03:40:03.050Z,10.8
2019-05-29T03:41:03.159Z,10.8
2019-05-29T03:42:03.120Z,10.8
2019-05-29T03:43:02.584Z,10.8
2019-05-29T03:44:02.712Z,10.8
2019-05-29T03:45:02.573Z,10.8
2019-05-29T03:46:02.625Z,10.7
2019-05-29T03:47:02.579Z,10.8
2019-05-29T03:48:02.816Z,10.8
2019-05-29T03:49:03.083Z,10.8
2019-05-29T03:50:02.763Z,10.8
2019-05-29T03:51:02.970Z,10.8
2019-05-29T03:52:02.680Z,10.7
2019-05-29T03:53:03.016Z,10.7
2019-05-29T03:54:02.679Z,10.7
2019-05-29T03:55:03.483Z,10.7
2019-05-29T03:56:03.333Z,10.7
2019-05-29T03:57:03.165Z,10.7
2019-05-29T03:58:03.476Z,10.8
2019-05-29T03:59:02.963Z,10.8
2019-05-29T04:00:02.710Z,10.8
2019-05-29T04:01:02.847Z,10.7
2019-05-29T04:02:03.650Z,10.8
2019-05-29T04:03:02.703Z,10.8
2019-05-29T04:04:02.626Z,10.8
2019-05-29T04:05:02.894Z,10.8
2019-05-29T04:06:02.999Z,10.8
2019-05-29T04:07:02.674Z,10.8
2019-05-29T04:08:02.963Z,10.7
2019-05-29T04:09:02.597Z,10.8
2019-05-29T04:10:03.163Z,10.8
2019-05-29T04:11:02.770Z,10.8
2019-05-29T04:12:03.015Z,10.7
2019-05-29T04:13:02.697Z,10.8
2019-05-29T04:14:03.075Z,10.7
2019-05-29T04:15:03.384Z,10.7
2019-05-29T04:16:02.682Z,10.8
2019-05-29T04:17:02.737Z,10.8
2019-05-29T04:18:02.971Z,10.8
2019-05-29T04:19:03.341Z,10.8
2019-05-29T04:20:03.357Z,10.8
2019-05-29T04:21:03.517Z,10.8
2019-05-29T04:22:03.330Z,10.8
2019-05-29T04:23:02.686Z,10.9
2019-05-29T04:24:02.792Z,10.9
2019-05-29T04:25:03.328Z,10.8
2019-05-29T04:26:02.572Z,10.8
2019-05-29T04:27:02.807Z,10.8
2019-05-29T04:28:03.276Z,10.8
2019-05-29T04:29:02.989Z,10.8
2019-05-29T04:30:03.438Z,10.9
2019-05-29T04:31:03.099Z,10.9
2019-05-29T04:32:03.168Z,10.8
2019-05-29T04:33:02.759Z,10.8
2019-05-29T04:34:03.025Z,10.8
2019-05-29T04:35:02.757Z,10.9
2019-05-29T04:36:03.099Z,10.9
2019-05-29T04:37:02.484Z,10.9
2019-05-29T04:38:03.302Z,10.9
2019-05-29T04:39:02.609Z,10.9
2019-05-29T04:40:03.215Z,10.9
2019-05-29T04:41:02.404Z,10.9
2019-05-29T04:42:02.906Z,10.9
2019-05-29T04:43:03.545Z,10.9
2019-05-29T04:44:02.782Z,11
2019-05-29T04:45:02.490Z,11
2019-05-29T04:46:03.483Z,11
2019-05-29T04:47:12.812Z,11
2019-05-29T04:48:02.643Z,11
2019-05-29T04:49:03.029Z,11
2019-05-29T04:50:02.791Z,11.1
2019-05-29T04:51:03.015Z,11.1
2019-05-29T04:52:03.437Z,11.1
2019-05-29T04:53:02.637Z,11.1
2019-05-29T04:54:03.151Z,11.1
2019-05-29T04:55:03.100Z,11.1
2019-05-29T04:56:03.372Z,11.1
2019-05-29T04:57:03.153Z,11.1
2019-05-29T04:58:03.283Z,11.1
2019-05-29T04:59:02.907Z,11.1
2019-05-29T05:00:03.527Z,11.1
2019-05-29T05:01:02.936Z,11.1
2019-05-29T05:02:03.293Z,11.1
2019-05-29T05:03:03.341Z,11.1
2019-05-29T05:04:02.525Z,11.1
2019-05-29T05:05:03.097Z,11.1
2019-05-29T05:06:03.058Z,11.1
2019-05-29T05:07:02.785Z,11.1
2019-05-29T05:08:03.521Z,11.1
2019-05-29T05:09:02.777Z,11.1
2019-05-29T05:10:03.006Z,11.1
2019-05-29T05:11:02.731Z,11.1
2019-05-29T05:12:03.390Z,0
2019-05-29T05:13:02.658Z,11.1
2019-05-29T05:14:03.095Z,11.1
2019-05-29T05:15:03.380Z,11.2
2019-05-29T05:16:03.064Z,11.3
2019-05-29T05:17:03.297Z,11.3
2019-05-29T05:18:02.692Z,11.3
2019-05-29T05:19:02.550Z,11.3
2019-05-29T05:20:02.736Z,11.3
2019-05-29T05:21:02.596Z,11.3
2019-05-29T05:22:02.788Z,11.2
2019-05-29T05:23:03.336Z,11.3
2019-05-29T05:24:02.834Z,11.3
2019-05-29T05:25:03.091Z,11.3
2019-05-29T05:26:02.679Z,11.3
2019-05-29T05:27:03.152Z,11.3
2019-05-29T05:28:02.791Z,11.3
2019-05-29T05:29:03.024Z,11.3
2019-05-29T05:30:02.832Z,11.3
2019-05-29T05:31:02.927Z,11.3
2019-05-29T05:32:02.600Z,11.4
2019-05-29T05:33:03.071Z,11.3
2019-05-29T05:34:02.791Z,11.4
2019-05-29T05:35:03.078Z,11.4
2019-05-29T05:36:02.449Z,11.4
2019-05-29T05:37:02.715Z,11.3
2019-05-29T05:38:02.615Z,11.4
2019-05-29T05:39:03.022Z,11.4
2019-05-29T05:40:03.179Z,11.4
2019-05-29T05:41:02.750Z,11.4
2019-05-29T05:42:02.963Z,11.5
2019-05-29T05:43:03.253Z,11.4
2019-05-29T05:44:03.343Z,11.4
2019-05-29T05:45:03.349Z,11.3
2019-05-29T05:46:02.565Z,11.3
2019-05-29T05:47:02.688Z,11.4
2019-05-29T05:48:02.778Z,11.4
2019-05-29T05:49:03.051Z,11.4
2019-05-29T05:50:02.642Z,11.4
2019-05-29T05:51:02.863Z,11.4
2019-05-29T05:52:02.608Z,11.4
2019-05-29T05:53:03.627Z,11.4
2019-05-29T05:54:03.032Z,11.5
2019-05-29T05:55:03.091Z,11.5
2019-05-29T05:56:03.198Z,11.5
2019-05-29T05:57:03.237Z,11.4
2019-05-29T05:58:02.997Z,11.6
2019-05-29T05:59:03.146Z,11.6
2019-05-29T06:00:03.558Z,11.7
2019-05-29T06:01:02.965Z,11.7
2019-05-29T06:02:02.459Z,11.7
2019-05-29T06:03:02.731Z,11.8
2019-05-29T06:04:03.286Z,11.8
2019-05-29T06:05:02.909Z,11.8
2019-05-29T06:06:03.560Z,11.9
2019-05-29T06:07:02.960Z,11.9
2019-05-29T06:08:02.725Z,11.9
2019-05-29T06:09:02.954Z,11.9
2019-05-29T06:10:03.444Z,11.9
2019-05-29T06:11:02.500Z,11.9
2019-05-29T06:12:03.233Z,11.9
2019-05-29T06:13:02.955Z,11.9
2019-05-29T06:14:03.168Z,11.9
2019-05-29T06:15:02.617Z,11.9
2019-05-29T06:16:03.256Z,11.9
2019-05-29T06:17:02.457Z,12
2019-05-29T06:18:22.101Z,12.1
2019-05-29T06:19:02.776Z,12.1
2019-05-29T06:20:03.159Z,12.1
2019-05-29T06:21:03.509Z,12.1
2019-05-29T06:22:03.169Z,12.1
2019-05-29T06:23:02.727Z,12
2019-05-29T06:24:02.990Z,12
2019-05-29T06:25:03.540Z,12
2019-05-29T06:26:02.732Z,12
2019-05-29T06:27:03.075Z,12
2019-05-29T06:28:02.750Z,12
2019-05-29T06:29:03.208Z,11.9
2019-05-29T06:30:03.707Z,11.9
2019-05-29T06:31:03.437Z,12.1
2019-05-29T06:32:03.504Z,12.2
2019-05-29T06:33:03.038Z,12.3
2019-05-29T06:34:03.310Z,12.2
2019-05-29T06:35:02.843Z,12.3
2019-05-29T06:36:03.176Z,12.3
2019-05-29T06:37:03.241Z,12.1
2019-05-29T06:38:03.196Z,12.1
2019-05-29T06:39:02.856Z,12.1
2019-05-29T06:40:03.322Z,12.1
2019-05-29T06:41:02.692Z,12.1
2019-05-29T06:42:02.927Z,12.1
2019-05-29T06:43:03.279Z,12.1
2019-05-29T06:44:02.850Z,12.2
2019-05-29T06:45:04.278Z,12.2
2019-05-29T06:46:02.686Z,12.3
2019-05-29T06:47:03.403Z,12.4
2019-05-29T06:48:03.042Z,12.4
2019-05-29T06:49:02.637Z,12.3
2019-05-29T06:50:03.391Z,12.4
2019-05-29T06:51:03.287Z,12.4
2019-05-29T06:52:02.712Z,12.4
2019-05-29T06:53:02.954Z,12.4
2019-05-29T06:54:02.911Z,12.4
2019-05-29T06:55:03.009Z,12.3
2019-05-29T06:56:04.105Z,12.4
2019-05-29T06:57:03.522Z,12.4
2019-05-29T06:58:03.555Z,12.4
2019-05-29T06:59:03.013Z,12.4
2019-05-29T07:00:02.787Z,12.3
2019-05-29T07:01:02.550Z,12.3
2019-05-29T07:02:02.962Z,12.3
2019-05-29T07:03:03.531Z,12.2
2019-05-29T07:04:12.894Z,12.2
2019-05-29T07:05:03.619Z,12.3
2019-05-29T07:06:03.040Z,12.2
2019-05-29T07:07:03.329Z,12.3
2019-05-29T07:09:03.273Z,12.2
2019-05-29T07:10:02.950Z,12.2
2019-05-29T07:11:02.942Z,12.3
2019-05-29T07:12:03.554Z,12.3
2019-05-29T07:13:03.297Z,12.3
2019-05-29T07:14:02.691Z,12.3
2019-05-29T07:15:03.159Z,12.2
2019-05-29T07:16:03.475Z,12.3
2019-05-29T07:17:02.864Z,12.4
2019-05-29T07:18:03.443Z,12.4
2019-05-29T07:19:48.691Z,12.4
2019-05-29T07:20:04.498Z,12.4
2019-05-29T07:21:03.125Z,12.4
2019-05-29T07:22:02.991Z,12.3
2019-05-29T07:23:02.611Z,12.3
2019-05-29T07:24:02.932Z,12.3
2019-05-29T07:25:02.691Z,12.3
2019-05-29T07:26:03.176Z,12.3
2019-05-29T07:27:02.987Z,12.3
2019-05-29T07:28:03.236Z,12.3
2019-05-29T07:29:08.892Z,12.2
2019-05-29T07:30:03.303Z,12.3
2019-05-29T07:31:04.260Z,12.3
2019-05-29T07:32:03.418Z,12.3
2019-05-29T07:33:02.710Z,12.3
2019-05-29T07:34:02.980Z,12.3
2019-05-29T07:35:04.855Z,12.3
2019-05-29T07:36:03.447Z,12.3
2019-05-29T07:37:02.833Z,12.3
2019-05-29T07:38:03.624Z,12.3
2019-05-29T07:39:04.079Z,12.3
2019-05-29T07:40:02.681Z,12.3
2019-05-29T07:41:02.664Z,12.3
2019-05-29T07:42:02.698Z,12.3
2019-05-29T07:43:03.514Z,12.3
2019-05-29T07:44:02.935Z,12.4
2019-05-29T07:45:03.674Z,12.5
2019-05-29T07:46:02.916Z,12.6
2019-05-29T07:47:02.729Z,12.4
2019-05-29T07:48:03.435Z,12.4
2019-05-29T07:49:03.256Z,12.4
2019-05-29T07:50:03.028Z,12.4
2019-05-29T07:51:07.580Z,12.3
2019-05-29T07:52:02.978Z,12.4
2019-05-29T07:53:03.529Z,12.4
2019-05-29T07:54:02.624Z,12.4
2019-05-29T07:55:03.030Z,12.4
2019-05-29T07:56:03.523Z,12.5
2019-05-29T07:57:02.904Z,12.4
2019-05-29T07:58:02.805Z,12.4
2019-05-29T07:59:03.960Z,12.4
2019-05-29T08:00:02.644Z,12.5
2019-05-29T08:01:14.188Z,12.6
2019-05-29T08:02:02.987Z,12.6
2019-05-29T08:03:03.662Z,12.4
2019-05-29T08:04:03.130Z,12.4
2019-05-29T08:05:03.558Z,12.5
2019-05-29T08:06:03.411Z,12.5
2019-05-29T08:07:02.877Z,12.5
2019-05-29T08:08:02.999Z,12.6
2019-05-29T08:09:02.942Z,12.7
2019-05-29T08:10:02.980Z,12.8
2019-05-29T08:11:02.710Z,12.8
2019-05-29T08:12:03.356Z,12.8
2019-05-29T08:13:03.103Z,12.8
2019-05-29T08:14:03.103Z,12.8
2019-05-29T08:15:02.675Z,12.6
2019-05-29T08:16:03.657Z,12.7
2019-05-29T08:17:03.116Z,12.7
2019-05-29T08:18:03.510Z,12.7
2019-05-29T08:19:02.511Z,12.7
2019-05-29T08:20:08.243Z,12.8
2019-05-29T08:21:02.665Z,12.8
2019-05-29T08:22:03.304Z,12.9
2019-05-29T08:23:02.799Z,12.8
2019-05-29T08:24:02.610Z,12.7
2019-05-29T08:25:02.694Z,12.7
2019-05-29T08:26:03.197Z,12.7
2019-05-29T08:27:03.449Z,12.6
2019-05-29T08:28:03.003Z,12.6
2019-05-29T08:29:02.733Z,12.6
2019-05-29T08:30:03.690Z,12.5
2019-05-29T08:31:03.464Z,12.6
2019-05-29T08:32:03.211Z,12.6
2019-05-29T08:33:03.183Z,12.6
2019-05-29T08:34:02.984Z,12.6
2019-05-29T08:35:03.652Z,12.6
2019-05-29T08:36:02.946Z,12.6
2019-05-29T08:37:07.733Z,12.6
2019-05-29T08:38:03.095Z,12.6
2019-05-29T08:39:03.263Z,12.6
2019-05-29T08:40:03.194Z,12.7
2019-05-29T08:41:06.126Z,12.6
2019-05-29T08:42:24.011Z,12.6
2019-05-29T08:43:03.522Z,12.6
2019-05-29T08:44:02.937Z,12.7
2019-05-29T08:45:02.719Z,12.7
2019-05-29T08:46:03.123Z,12.6
2019-05-29T08:47:11.265Z,12.6
2019-05-29T08:48:02.830Z,12.6
2019-05-29T08:49:03.449Z,12.7
2019-05-29T08:50:19.497Z,12.8
2019-05-29T08:51:03.426Z,12.8
2019-05-29T08:52:12.796Z,12.9
2019-05-29T08:53:02.838Z,12.9
2019-05-29T08:54:02.874Z,12.9
2019-05-29T08:55:03.078Z,12.9
2019-05-29T08:56:02.803Z,12.9
2019-05-29T08:57:02.920Z,12.9
2019-05-29T08:58:03.336Z,12.8
2019-05-29T08:59:02.853Z,12.8
2019-05-29T09:00:03.746Z,12.7
2019-05-29T09:01:02.859Z,12.6
2019-05-29T09:02:03.678Z,12.6
2019-05-29T09:03:03.091Z,12.6
2019-05-29T09:04:03.056Z,12.6
2019-05-29T09:05:03.570Z,12.6
2019-05-29T09:06:13.548Z,12.6
2019-05-29T09:07:02.702Z,12.7
2019-05-29T09:08:02.948Z,12.8
2019-05-29T09:09:02.877Z,12.8
2019-05-29T09:10:03.121Z,12.7
2019-05-29T09:11:03.699Z,12.7
2019-05-29T09:12:03.011Z,12.8
2019-05-29T09:13:05.548Z,12.8
2019-05-29T09:14:03.060Z,12.8
2019-05-29T09:15:03.674Z,12.8
2019-05-29T09:16:03.034Z,12.8
2019-05-29T09:17:03.720Z,12.8
2019-05-29T09:18:02.743Z,12.9
2019-05-29T09:19:03.305Z,12.9
2019-05-29T09:20:03.217Z,12.9
2019-05-29T09:21:04.715Z,12.8
2019-05-29T09:22:02.817Z,12.8
2019-05-29T09:23:02.735Z,12.8
2019-05-29T09:24:02.982Z,12.7
2019-05-29T09:25:02.501Z,12.7
2019-05-29T09:26:23.857Z,12.7
2019-05-29T09:27:02.274Z,12.7
2019-05-29T09:28:03.273Z,12.7
2019-05-29T09:29:02.583Z,12.8
2019-05-29T09:30:03.273Z,12.8
2019-05-29T09:31:02.517Z,12.8
2019-05-29T09:32:03.527Z,12.9
2019-05-29T09:33:02.636Z,13
2019-05-29T09:34:03.373Z,13
2019-05-29T09:35:03.097Z,13.1
2019-05-29T09:36:03.179Z,13.1
2019-05-29T09:37:02.998Z,13.1
2019-05-29T09:38:03.253Z,13.1
2019-05-29T09:39:02.643Z,13.1
2019-05-29T09:40:03.026Z,13.3
2019-05-29T09:41:02.792Z,13.1
2019-05-29T09:42:03.346Z,13.1
2019-05-29T09:43:02.822Z,13.3
2019-05-29T09:44:03.204Z,13.3
2019-05-29T09:45:03.242Z,13.3
2019-05-29T09:46:03.405Z,13.2
2019-05-29T09:47:02.599Z,13.2
2019-05-29T09:48:03.226Z,13.3
2019-05-29T09:49:02.741Z,13.3
2019-05-29T09:50:03.338Z,13.3
2019-05-29T09:51:22.125Z,13.3
2019-05-29T09:52:04.313Z,13.4
2019-05-29T09:53:04.338Z,13.6
2019-05-29T09:54:03.814Z,13.6
2019-05-29T09:55:02.763Z,13.7
2019-05-29T09:56:03.575Z,13.7
2019-05-29T09:57:03.295Z,13.7
2019-05-29T09:58:02.964Z,13.9
2019-05-29T09:59:04.089Z,13.9
2019-05-29T10:00:04.408Z,13.9
2019-05-29T10:01:25.046Z,13.8
2019-05-29T10:02:09.444Z,13.8
2019-05-29T10:03:04.004Z,13.8
2019-05-29T10:04:06.479Z,13.5
2019-05-29T10:05:04.304Z,13.4
2019-05-29T10:06:04.562Z,13.1
2019-05-29T10:07:05.139Z,13
2019-05-29T10:08:04.522Z,12.8
2019-05-29T10:09:03.906Z,12.8
2019-05-29T10:10:05.312Z,12.5
2019-05-29T10:11:11.406Z,12.4
2019-05-29T10:12:07.117Z,12.4
2019-05-29T10:13:04.610Z,12.4
2019-05-29T10:14:05.167Z,12.4
2019-05-29T10:15:04.557Z,12.4
2019-05-29T10:16:03.402Z,12.4
2019-05-29T10:17:13.230Z,12.4
2019-05-29T10:18:31.741Z,12.4
2019-05-29T10:19:05.021Z,12.4
2019-05-29T10:20:03.454Z,12.4
2019-05-29T10:21:03.343Z,12.4
2019-05-29T10:22:05.768Z,12.6
2019-05-29T10:23:03.355Z,12.6
2019-05-29T10:24:06.107Z,12.6
2019-05-29T10:25:03.791Z,12.6
2019-05-29T10:26:06.604Z,12.8
2019-05-29T10:27:06.813Z,12.8
2019-05-29T10:28:06.276Z,12.8
2019-05-29T10:29:10.227Z,12.9
2019-05-29T10:30:03.670Z,12.9
2019-05-29T10:31:05.458Z,12.9
2019-05-29T10:32:03.261Z,13
2019-05-29T10:33:02.868Z,13.1
2019-05-29T10:34:03.203Z,13.1
2019-05-29T10:35:02.673Z,13.2
2019-05-29T10:36:04.561Z,13.2
2019-05-29T10:37:02.599Z,13.1
2019-05-29T10:38:03.327Z,13.1
2019-05-29T10:39:03.128Z,13.1
2019-05-29T10:40:02.784Z,13.2
2019-05-29T10:41:07.646Z,13.3
2019-05-29T10:42:02.786Z,13.3
2019-05-29T10:43:02.926Z,13.4
2019-05-29T10:44:03.338Z,13.4
2019-05-29T10:45:03.601Z,13.5
2019-05-29T10:46:03.281Z,13.6
2019-05-29T10:47:03.296Z,13.8
2019-05-29T10:48:03.083Z,13.8
2019-05-29T10:49:05.140Z,13.8
2019-05-29T10:50:03.524Z,13.8
2019-05-29T10:51:02.699Z,13.9
2019-05-29T10:52:17.712Z,13.8
2019-05-29T10:53:03.478Z,13.8
2019-05-29T10:54:03.542Z,13.4
2019-05-29T10:55:02.884Z,13
2019-05-29T10:56:03.108Z,12.9
2019-05-29T10:57:03.477Z,12.8
2019-05-29T10:58:03.291Z,12.9
2019-05-29T10:59:02.471Z,12.8
2019-05-29T11:00:03.290Z,12.6
2019-05-29T11:01:03.382Z,12.6
2019-05-29T11:02:03.331Z,12.6
2019-05-29T11:03:03.033Z,12.6
2019-05-29T11:04:02.982Z,12.8
2019-05-29T11:05:03.541Z,12.8
2019-05-29T11:06:03.296Z,12.9
2019-05-29T11:07:02.845Z,13.1
2019-05-29T11:08:02.999Z,13.2
2019-05-29T11:09:03.361Z,13.4
2019-05-29T11:10:03.462Z,13.4
2019-05-29T11:11:02.884Z,13.4
2019-05-29T11:12:03.126Z,13.4
2019-05-29T11:13:02.783Z,13.3
2019-05-29T11:14:02.554Z,13.3
2019-05-29T11:15:22.166Z,13.5
2019-05-29T11:16:02.459Z,13.5
2019-05-29T11:17:03.225Z,13.5
2019-05-29T11:18:02.695Z,13.8
2019-05-29T11:19:03.079Z,13.9
2019-05-29T11:20:02.580Z,13.8
2019-05-29T11:21:03.262Z,13.8
2019-05-29T11:22:26.870Z,13.9
2019-05-29T11:23:02.915Z,14
2019-05-29T11:24:03.178Z,14
2019-05-29T11:25:27.651Z,14
2019-05-29T11:26:03.455Z,13.9
2019-05-29T11:27:03.000Z,14.1
2019-05-29T11:28:03.836Z,14.2
2019-05-29T11:29:02.842Z,14.1
2019-05-29T11:30:03.270Z,14
2019-05-29T11:31:06.634Z,14.1
2019-05-29T11:32:02.941Z,14.2
2019-05-29T11:33:03.369Z,14.1
2019-05-29T11:34:03.031Z,14.1
2019-05-29T11:35:03.190Z,14.1
2019-05-29T11:36:13.910Z,14.1
2019-05-29T11:37:03.087Z,14
2019-05-29T11:38:03.149Z,14
2019-05-29T11:39:06.481Z,13.9
2019-05-29T11:40:03.518Z,13.8
2019-05-29T11:41:26.937Z,13.9
2019-05-29T11:42:03.333Z,13.9
2019-05-29T11:43:03.427Z,14
2019-05-29T11:44:03.529Z,13.9
2019-05-29T11:45:03.993Z,13.9
2019-05-29T11:46:03.275Z,13.9
2019-05-29T11:47:03.166Z,13.8
2019-05-29T11:48:05.599Z,13.7
2019-05-29T11:49:03.834Z,13.6
2019-05-29T11:50:20.256Z,13.8
2019-05-29T11:51:02.929Z,13.9
2019-05-29T11:52:29.574Z,13.8
2019-05-29T11:53:03.626Z,13.6
2019-05-29T11:54:02.925Z,13.6
2019-05-29T11:55:08.638Z,13.5
2019-05-29T11:56:02.875Z,13.4
2019-05-29T11:57:03.490Z,13.4
2019-05-29T11:58:02.828Z,13.4
2019-05-29T11:59:03.321Z,13.5
2019-05-29T12:00:21.211Z,13.5
2019-05-29T12:01:03.257Z,13.5
2019-05-29T12:02:03.706Z,13.6
2019-05-29T12:03:02.526Z,13.8
2019-05-29T12:04:27.018Z,13.9
2019-05-29T12:05:04.335Z,13.8
2019-05-29T12:06:03.460Z,13.9
2019-05-29T12:07:02.520Z,13.9
2019-05-29T12:08:02.514Z,13.8
2019-05-29T12:09:02.671Z,13.7
2019-05-29T12:10:06.374Z,13.6
2019-05-29T12:11:04.991Z,13.6
2019-05-29T12:12:03.094Z,13.4
2019-05-29T12:13:03.520Z,13.3
2019-05-29T12:14:02.713Z,13.3
2019-05-29T12:15:18.080Z,13.4
2019-05-29T12:16:02.685Z,13.3
2019-05-29T12:17:03.256Z,13.3
2019-05-29T12:18:24.841Z,13.4
2019-05-29T12:19:02.687Z,13.3
2019-05-29T12:20:27.797Z,13.3
2019-05-29T12:21:03.354Z,13.3
2019-05-29T12:22:03.222Z,13.2
2019-05-29T12:23:27.378Z,13.1
2019-05-29T12:24:02.836Z,13.1
2019-05-29T12:25:03.472Z,13
2019-05-29T12:26:23.395Z,13.1
2019-05-29T12:27:03.499Z,13.1
2019-05-29T12:28:03.719Z,13
2019-05-29T12:29:12.196Z,12.9
2019-05-29T12:30:03.451Z,13.1
2019-05-29T12:31:03.654Z,13.1
2019-05-29T12:32:12.073Z,13
2019-05-29T12:33:03.440Z,13
2019-05-29T12:34:19.558Z,13.1
2019-05-29T12:35:03.525Z,13
2019-05-29T12:36:03.512Z,13.1
2019-05-29T12:37:04.049Z,13
2019-05-29T12:38:03.704Z,13.1
2019-05-29T12:39:04.364Z,13.1
2019-05-29T12:40:03.927Z,13
2019-05-29T12:41:04.025Z,13.1
2019-05-29T12:42:03.967Z,13
2019-05-29T12:43:03.941Z,13.1
2019-05-29T12:44:03.827Z,13.1
2019-05-29T12:45:04.496Z,13.1
2019-05-29T12:46:04.363Z,13.1
2019-05-29T12:47:04.661Z,13.1
2019-05-29T12:48:15.181Z,13.3
2019-05-29T12:49:03.910Z,13.4
2019-05-29T12:50:04.568Z,13.3
2019-05-29T12:51:04.417Z,13.2
2019-05-29T12:52:09.799Z,13.2
2019-05-29T12:53:04.096Z,13.1
2019-05-29T12:54:05.408Z,13.1
2019-05-29T12:55:04.378Z,13.1
2019-05-29T12:56:04.814Z,13.1
2019-05-29T12:57:03.898Z,13
2019-05-29T12:58:04.631Z,12.9
2019-05-29T12:59:04.867Z,12.9
2019-05-29T13:00:05.856Z,12.9
2019-05-29T13:01:05.318Z,12.8
2019-05-29T13:02:04.288Z,12.9
2019-05-29T13:03:05.353Z,12.9
2019-05-29T13:04:04.936Z,12.9
2019-05-29T13:05:20.630Z,12.8
2019-05-29T13:06:04.133Z,12.8
2019-05-29T13:07:04.805Z,12.8
2019-05-29T13:08:05.385Z,12.9
2019-05-29T13:09:05.214Z,12.8
2019-05-29T13:10:02.985Z,12.7
2019-05-29T13:11:05.185Z,12.6
2019-05-29T13:12:02.809Z,12.6
2019-05-29T13:13:11.603Z,12.7
2019-05-29T13:14:02.870Z,12.7
2019-05-29T13:15:05.915Z,12.7
2019-05-29T13:16:03.395Z,12.8
2019-05-29T13:17:03.261Z,12.8
2019-05-29T13:18:10.369Z,12.8
2019-05-29T13:19:05.320Z,13
2019-05-29T13:20:22.456Z,13
2019-05-29T13:21:03.325Z,13
2019-05-29T13:22:03.750Z,13